^^
Station Historical Data
Daily Summary for January 10, 2018 Units:  Both    English   Metric
« Previous Day
Next Day »
Daily Weekly Monthly Yearly Custom
  High: Low: Average:
Temperature: TemperatureC °F /  -17.8 °C -4.7 °F /  -20.4 °C -3 °F /  -19.4 °C
Dew Point: DewpointC °F /  -17.8 °C -5.5 °F /  -20.8 °C -3.8 °F /  -19.9 °C
Humidity: Humidity% 93% 89%
Wind Speed: WindSpeedKMHmph /  0km/h - 0.1mph /  0.2km/h
Wind Gust: WindSpeedGustKMHmph /  0km/h - -
Wind- - NW
Pressure: PressurehPa in /  0 hPa 1024.3 in /  34682.8 hPa -
Precipitation: 0.0 in /  0 mm    
Historical Graphs
 
 
Tabular Data for January 10, 2018
Time Temperature Dew Point Pressure Wind Wind Speed Wind Gust Humidity Rainfall Rate (Hourly) solar Conditions
TemperatureC °F /  -17.8 °C DewpointC °F /  -17.8 °C PressurehPain /  0hPa Calm     Humidity% HourlyPrecipMMin /  0mm SoftwareType W/m2 Conditions
00:03 -2.1 °F /  -18.9 °C -3.1 °F /  -19.5 °C 1025.3in /  34716.7hPa Calm     93% 0.0in /  0mm WeatherDisplay:10.37 W/m2 FEW
00:11 -2.1 °F /  -18.9 °C -3.1 °F /  -19.5 °C 1025.3in /  34716.7hPa Calm     93% 0.0in /  0mm WeatherDisplay:10.37 W/m2 FEW
00:18 -2.1 °F /  -18.9 °C -3.1 °F /  -19.5 °C 1025.3in /  34716.7hPa Calm     93% 0.0in /  0mm WeatherDisplay:10.37 W/m2 FEW
00:26 -2.1 °F /  -18.9 °C -3.1 °F /  -19.5 °C 1025.3in /  34716.7hPa Calm     93% 0.0in /  0mm WeatherDisplay:10.37 W/m2 FEW
00:32 -2.1 °F /  -18.9 °C -3.1 °F /  -19.5 °C 1025.3in /  34716.7hPa NW 0.3mph /  0.5km/h 1.9mph /  3.1km/h 93% 0.0in /  0mm WeatherDisplay:10.37 W/m2 FEW
00:46 -2.1 °F /  -18.9 °C -3.1 °F /  -19.5 °C 1025.3in /  34716.7hPa Calm     93% 0.0in /  0mm WeatherDisplay:10.37 W/m2 FEW
00:54 -2.0 °F /  -18.9 °C -3.0 °F /  -19.4 °C 1025.3in /  34716.7hPa Calm     93% 0.0in /  0mm WeatherDisplay:10.37 W/m2 FEW
01:04 -2.0 °F /  -18.9 °C -2.8 °F /  -19.3 °C 1025.3in /  34716.7hPa Calm     94% 0.0in /  0mm WeatherDisplay:10.37 W/m2 FEW
01:27 -2.0 °F /  -18.9 °C -2.8 °F /  -19.3 °C 1025.3in /  34716.7hPa NW 1.0mph /  1.6km/h 5.6mph /  9km/h 94% 0.0in /  0mm WeatherDisplay:10.37 W/m2 FEW
15:03 -3.4 °F /  -19.7 °C -4.2 °F /  -20.1 °C 1024.6in /  34693hPa Calm     94% 0.0in /  0mm WeatherDisplay:10.37 W/m2 FEW
15:14 -3.4 °F /  -19.7 °C -4.3 °F /  -20.2 °C 1024.3in /  34682.8hPa Calm     94% 0.0in /  0mm WeatherDisplay:10.37 W/m2 FEW
15:29 -3.5 °F /  -19.7 °C -4.3 °F /  -20.2 °C 1024.3in /  34682.8hPa Calm     94% 0.0in /  0mm WeatherDisplay:10.37 W/m2 FEW
15:58 -3.7 °F /  -19.8 °C -4.5 °F /  -20.3 °C 1024.3in /  34682.8hPa Calm     94% 0.0in /  0mm WeatherDisplay:10.37 W/m2 FEW
16:06 -3.7 °F /  -19.8 °C -4.6 °F /  -20.3 °C 1024.3in /  34682.8hPa Calm     94% 0.0in /  0mm WeatherDisplay:10.37 W/m2 FEW
16:17 -3.8 °F /  -19.9 °C -4.6 °F /  -20.3 °C 1024.3in /  34682.8hPa Calm     94% 0.0in /  0mm WeatherDisplay:10.37 W/m2 FEW
16:42 -3.9 °F /  -19.9 °C -4.8 °F /  -20.4 °C 1024.3in /  34682.8hPa Calm     94% 0.0in /  0mm WeatherDisplay:10.37 W/m2 FEW
16:51 -4.0 °F /  -20 °C -4.8 °F /  -20.4 °C 1024.6in /  34693hPa Calm     94% 0.0in /  0mm WeatherDisplay:10.37 W/m2 FEW
17:31 -4.1 °F /  -20.1 °C -4.9 °F /  -20.5 °C 1024.6in /  34693hPa Calm     94% 0.0in /  0mm WeatherDisplay:10.37 W/m2 FEW
17:47 -4.2 °F /  -20.1 °C -5.1 °F /  -20.6 °C 1024.6in /  34693hPa Calm     94% 0.0in /  0mm WeatherDisplay:10.37 W/m2 FEW
18:45 -4.6 °F /  -20.3 °C -5.4 °F /  -20.8 °C 1024.3in /  34682.8hPa Calm     94% 0.0in /  0mm WeatherDisplay:10.37 W/m2 FEW
19:13 -4.7 °F /  -20.4 °C -5.5 °F /  -20.8 °C 1024.6in /  34693hPa Calm     94% 0.0in /  0mm WeatherDisplay:10.37 W/m2 FEW
Tuulensuunkaari, Veikkola, Suomi
Compliments of Weather Underground - 1.75 mb